Airfield :
LOGIN :

Register | Disclaimer

   EN    FR    IT 

 










Legend :    VFR   Marginal VFR   IFR   Intensive IFR   Very Intensive IFR
Visi :
Ceiling :
>= 8 km
>= 3000ft
5 to 8 km
1000 to 3000 ft
1500m to 5 km
500 to 1000 ft
800 to 1500m
200 to 500 ft
< 800m
< 200 ft
Symbols :   Thunderstorms  Fog  Heavy snow  Heavy precipitations  Wind > 20 kt
SIGMETs :     Misc.  Thunderstorms  Icing  Turbulence  Mountain Waves  Volcanic Ashes







- Airport Elevation : 49 ft
- IATA code : GLZ


EHGR - Gilze-Rijen Airbase

CURRENT METAR :
  • 260728Z AUTO 25011KT 220V290 9999 FEW016 SCT020 10/07 Q1015 WHT 25012G22KT 9999 FEW016 SCT025

EXPIRED METARs :
  • 260725Z AUTO 25011KT 210V280 9999 FEW013 10/06 Q1015 BLU 23010KT 9999 BKN020
  • 260655Z AUTO 24008KT 210V280 9999 FEW021 SCT031 09/07 Q1015 BLU 23010KT 9999 BKN020
  • 260643Z AUTO 24009KT 200V270 9999 FEW011 SCT015 BKN021 10/07 Q1015 WHT 23010KT 9999 BKN020
  • 260625Z AUTO 23007KT 200V270 9999 SCT017 OVC021 09/07 Q1015 WHT 23010KT 9999 BKN020
  • 260619Z AUTO 23007KT 200V270 9999 SCT017 OVC021 09/07 Q1015 WHT 23010KT 9999 BKN020
  • 260555Z AUTO 24007KT 220V280 9999 FEW018 BKN021 OVC025 09/06 Q1014 WHT
  • 260535Z AUTO 25008KT 9999 FEW018/// SCT022/// BKN032/// 09/06 Q1014 WHT
  • 260525Z AUTO 25008KT 230V290 9999 BKN059 09/06 Q1014 BLU
  • 260503Z AUTO 24006KT 9999 FEW015CB SCT024 BKN066 08/07 Q1014 WHT
  • 260455Z AUTO 24006KT 9999 FEW015CB BKN037 BKN043 08/07 Q1013 BLU

TAF TAF EHGR
Valid from the 26 at 05:00 until the 26 at 17:00 UTC


260439Z 2605/2617 25010KT 9999 SCT020 SCT040
PROB30
TEMPO 2605/2607 SCT015 SCT040
BECMG 2608/2610 26014G27KT
No reported NOTAMs for that airfield.



MET'MAP, your aeronautical weather chart ! - Copyright ORBIFLY December 2007 - Disclaimer

ORBIFLY MET'MAP TEAM :

Programming & Development : Alexandra Zaïnal
Concept & Development : Baudouin d'Aumeries
Co-Development & Prog : Marc-Olivier Méhu
Technical & hardware support : Manuel Goepfert

Contact : metmap@orbifly.com




SOURCES & CREDITS :

   NOAA